createdAt,value
2023-05-20T00:01:48.739Z,73.10
2023-05-20T00:04:16.766Z,73.30
2023-05-20T00:06:44.746Z,72.50
2023-05-20T00:09:12.802Z,73.20
2023-05-20T00:11:40.819Z,72.80
2023-05-20T00:14:08.822Z,73.40
2023-05-20T00:16:38.210Z,72.90
2023-05-20T00:19:06.262Z,73.40
2023-05-20T00:21:34.809Z,73.40
2023-05-20T00:24:02.753Z,73.80
2023-05-20T00:26:30.827Z,74.20
2023-05-20T00:28:58.752Z,74.50
2023-05-20T00:31:26.815Z,74.60
2023-05-20T00:33:56.154Z,74.60
2023-05-20T00:36:24.097Z,74.80
2023-05-20T00:38:51.995Z,73.10
2023-05-20T00:41:19.914Z,74.00
2023-05-20T00:43:48.042Z,73.50
2023-05-20T00:46:16.552Z,72.80
2023-05-20T00:48:45.339Z,73.20
2023-05-20T00:51:15.275Z,72.80
2023-05-20T00:53:44.354Z,73.00
2023-05-20T00:56:12.810Z,72.40
2023-05-20T00:58:41.490Z,72.10
2023-05-20T01:01:09.493Z,72.40
2023-05-20T01:03:37.721Z,72.60
2023-05-20T01:06:05.902Z,73.10
2023-05-20T01:08:35.652Z,73.70
2023-05-20T01:11:09.057Z,73.70
2023-05-20T01:13:43.057Z,74.00
2023-05-20T01:16:12.412Z,73.90
2023-05-20T01:18:42.114Z,74.70
2023-05-20T01:21:13.308Z,74.20
2023-05-20T01:23:43.392Z,74.70
2023-05-20T01:26:13.664Z,75.50
2023-05-20T01:28:44.498Z,75.70
2023-05-20T01:31:16.861Z,75.70
2023-05-20T01:33:45.946Z,75.50
2023-05-20T01:36:14.721Z,76.60
2023-05-20T01:38:44.600Z,77.30
2023-05-20T01:41:13.783Z,77.30
2023-05-20T01:43:42.166Z,77.10
2023-05-20T01:46:10.181Z,77.20
2023-05-20T01:48:38.526Z,77.40
2023-05-20T01:51:06.640Z,77.60
2023-05-20T01:53:34.618Z,77.60
2023-05-20T01:56:03.944Z,78.10
2023-05-20T01:58:31.876Z,78.60
2023-05-20T02:01:00.067Z,78.70
2023-05-20T02:03:28.090Z,78.70
2023-05-20T02:05:56.191Z,79.20
2023-05-20T02:08:24.239Z,79.30
2023-05-20T02:10:52.200Z,79.70
2023-05-20T02:13:21.549Z,79.80
2023-05-20T02:15:49.517Z,79.90
2023-05-20T02:18:18.559Z,80.20
2023-05-20T02:20:46.652Z,80.50
2023-05-20T02:23:14.581Z,80.80
2023-05-20T02:25:42.555Z,80.70
2023-05-20T02:28:11.205Z,80.80
2023-05-20T02:30:40.745Z,81.10
2023-05-20T02:33:09.700Z,81.00
2023-05-20T02:35:37.741Z,81.00
2023-05-20T02:38:05.582Z,81.40
2023-05-20T02:40:33.448Z,81.40
2023-05-20T02:43:01.509Z,81.60
2023-05-20T02:45:29.429Z,81.50
2023-05-20T02:47:58.811Z,81.50
2023-05-20T02:50:26.790Z,81.40
2023-05-20T02:52:54.715Z,81.60
2023-05-20T02:55:23.699Z,81.90
2023-05-20T02:57:52.344Z,81.40
2023-05-20T03:00:20.279Z,81.40
2023-05-20T03:02:48.307Z,81.10
2023-05-20T03:05:17.893Z,80.80
2023-05-20T03:07:46.329Z,80.90
2023-05-20T03:10:14.295Z,81.00
2023-05-20T03:12:42.253Z,81.10
2023-05-20T03:15:10.844Z,81.80
2023-05-20T03:17:38.820Z,81.90
2023-05-20T03:20:08.303Z,81.80
2023-05-20T03:22:37.619Z,81.90
2023-05-20T03:25:06.556Z,82.00
2023-05-20T03:27:34.601Z,81.90
2023-05-20T03:30:02.576Z,82.10
2023-05-20T03:32:30.552Z,82.00
2023-05-20T03:35:00.036Z,81.40
2023-05-20T03:37:28.491Z,81.30
2023-05-20T03:39:57.860Z,81.00
2023-05-20T03:42:25.851Z,80.80
2023-05-20T03:44:54.050Z,80.80
2023-05-20T03:47:22.344Z,80.80
2023-05-20T03:49:50.326Z,80.60
2023-05-20T03:52:18.266Z,80.70
2023-05-20T03:54:46.229Z,80.60
2023-05-20T03:57:15.534Z,80.30
2023-05-20T03:59:43.495Z,80.50
2023-05-20T04:02:11.851Z,80.40
2023-05-20T04:04:43.004Z,80.20
2023-05-20T04:07:10.960Z,79.90
2023-05-20T04:09:39.636Z,80.20
2023-05-20T04:12:07.880Z,79.60
2023-05-20T04:14:38.838Z,79.80
2023-05-20T04:17:07.085Z,79.60
2023-05-20T04:19:36.280Z,79.60
2023-05-20T04:22:04.265Z,79.30
2023-05-20T04:24:32.203Z,79.50
2023-05-20T04:27:00.232Z,79.40
2023-05-20T04:29:28.472Z,79.60
2023-05-20T04:31:58.783Z,79.30
2023-05-20T04:34:27.106Z,79.00
2023-05-20T04:36:55.118Z,79.10
2023-05-20T04:39:23.035Z,78.90
2023-05-20T04:41:51.031Z,77.80
2023-05-20T04:44:19.015Z,78.20
2023-05-20T04:46:46.990Z,77.60
2023-05-20T04:49:16.378Z,77.70
2023-05-20T04:51:44.434Z,77.40
2023-05-20T04:54:12.397Z,76.70
2023-05-20T04:56:41.146Z,77.30
2023-05-20T04:59:09.653Z,75.90
2023-05-20T05:01:37.797Z,76.60
2023-05-20T05:04:06.261Z,75.60
2023-05-20T05:06:36.193Z,75.80
2023-05-20T05:09:04.768Z,75.00
2023-05-20T05:11:32.772Z,75.50
2023-05-20T05:14:00.888Z,74.20
2023-05-20T05:16:28.838Z,73.60
2023-05-20T05:18:56.815Z,72.90
2023-05-20T05:21:24.788Z,72.00
2023-05-20T05:23:56.196Z,72.60
2023-05-20T05:26:26.423Z,73.00
2023-05-20T05:28:55.226Z,71.20
2023-05-20T05:31:23.231Z,71.80
2023-05-20T05:33:51.324Z,69.80
2023-05-20T05:36:19.261Z,70.00
2023-05-20T05:38:47.188Z,69.50
2023-05-20T05:41:16.543Z,69.50
2023-05-20T05:43:44.536Z,68.30
2023-05-20T05:46:12.487Z,67.90
2023-05-20T05:48:42.387Z,68.00
2023-05-20T05:51:10.335Z,69.40
2023-05-20T05:53:38.249Z,66.60
2023-05-20T05:56:06.918Z,67.40
2023-05-20T05:58:36.342Z,67.10
2023-05-20T06:01:04.393Z,66.10
2023-05-20T06:03:32.419Z,67.10
2023-05-20T06:06:00.436Z,67.10
2023-05-20T06:08:28.374Z,65.00
2023-05-20T06:10:56.308Z,64.30
2023-05-20T06:13:24.614Z,65.60
2023-05-20T06:15:54.187Z,63.70
2023-05-20T06:18:22.151Z,63.50
2023-05-20T06:20:56.122Z,62.70
2023-05-20T06:23:24.171Z,64.00
2023-05-20T06:25:52.393Z,63.40
2023-05-20T06:28:21.773Z,64.80
2023-05-20T06:30:49.890Z,64.60
2023-05-20T06:33:20.256Z,62.20
2023-05-20T06:35:48.462Z,62.20
2023-05-20T06:38:16.425Z,63.60
2023-05-20T06:40:44.413Z,62.80
2023-05-20T06:43:12.421Z,62.00
2023-05-20T06:45:40.378Z,61.00
2023-05-20T06:48:08.551Z,62.00
2023-05-20T06:50:37.919Z,61.10
2023-05-20T06:53:05.845Z,61.20
2023-05-20T06:55:33.905Z,61.30
2023-05-20T06:58:01.971Z,60.70
2023-05-20T07:00:29.953Z,60.80
2023-05-20T07:02:58.083Z,62.30
2023-05-20T07:05:27.575Z,61.50
2023-05-20T07:07:56.917Z,61.80
2023-05-20T07:10:24.863Z,60.60
2023-05-20T07:12:52.783Z,59.20
2023-05-20T07:15:20.761Z,59.70
2023-05-20T07:17:48.794Z,58.60
2023-05-20T07:20:17.014Z,59.20
2023-05-20T07:22:45.143Z,58.90
2023-05-20T07:25:14.889Z,58.40
2023-05-20T07:27:42.946Z,57.90
2023-05-20T07:30:11.174Z,58.60
2023-05-20T07:32:39.158Z,58.00
2023-05-20T07:35:07.742Z,58.80
2023-05-20T07:37:35.921Z,57.60
2023-05-20T07:40:05.409Z,60.10
2023-05-20T07:42:35.050Z,54.60
2023-05-20T07:45:03.112Z,54.00
2023-05-20T07:47:33.377Z,54.80
2023-05-20T07:50:01.405Z,53.30
2023-05-20T07:52:29.515Z,55.40
2023-05-20T07:54:58.064Z,53.70
2023-05-20T07:57:26.020Z,54.10
2023-05-20T07:59:55.321Z,53.60
2023-05-20T08:02:23.243Z,53.30
2023-05-20T08:04:51.216Z,52.90
2023-05-20T08:07:19.124Z,52.00
2023-05-20T08:09:47.006Z,51.80
2023-05-20T08:12:14.870Z,52.60
2023-05-20T08:14:43.534Z,51.70
2023-05-20T08:17:12.892Z,52.40
2023-05-20T08:19:40.944Z,51.90
2023-05-20T08:22:08.904Z,53.20
2023-05-20T08:24:37.028Z,50.80
2023-05-20T08:27:05.162Z,52.00
2023-05-20T08:29:33.290Z,51.40
2023-05-20T08:32:01.155Z,51.30
2023-05-20T08:34:30.456Z,52.30
2023-05-20T08:36:58.362Z,51.90
2023-05-20T08:39:27.175Z,53.50
2023-05-20T08:41:55.256Z,49.40
2023-05-20T08:44:25.481Z,50.60
2023-05-20T08:46:55.593Z,51.30
2023-05-20T08:49:23.680Z,51.10
2023-05-20T08:51:52.981Z,48.90
2023-05-20T08:54:23.918Z,49.60
2023-05-20T08:56:54.025Z,49.90
2023-05-20T08:59:23.390Z,50.20
2023-05-20T09:01:51.336Z,50.90
2023-05-20T09:04:19.290Z,52.30
2023-05-20T09:06:47.965Z,50.70
2023-05-20T09:09:17.364Z,52.80
2023-05-20T09:11:45.315Z,51.80
2023-05-20T09:14:13.205Z,52.00
2023-05-20T09:16:41.949Z,51.30
2023-05-20T09:19:11.279Z,52.10
2023-05-20T09:21:39.863Z,50.60
2023-05-20T09:24:07.803Z,49.60
2023-05-20T09:26:37.642Z,50.20
2023-05-20T09:29:06.092Z,51.20
2023-05-20T09:31:34.390Z,51.30
2023-05-20T09:34:02.904Z,50.80
2023-05-20T09:36:31.804Z,49.10
2023-05-20T09:39:05.082Z,48.90
2023-05-20T09:41:39.467Z,49.30
2023-05-20T09:44:07.858Z,49.20
2023-05-20T09:46:37.035Z,48.30
2023-05-20T09:49:06.730Z,50.20
2023-05-20T09:51:35.319Z,49.30
2023-05-20T09:54:05.052Z,48.40
2023-05-20T09:56:34.728Z,48.40
2023-05-20T09:59:06.369Z,46.90
2023-05-20T10:01:34.341Z,48.10
2023-05-20T10:04:03.043Z,49.10
2023-05-20T10:06:47.618Z,49.10
2023-05-20T10:09:29.916Z,46.00
2023-05-20T10:12:04.493Z,48.00
2023-05-20T10:14:46.961Z,49.30
2023-05-20T10:17:22.652Z,49.70
2023-05-20T10:19:51.148Z,51.30
2023-05-20T10:22:28.974Z,46.90
2023-05-20T10:25:00.484Z,45.40
2023-05-20T10:27:28.558Z,46.60
2023-05-20T10:29:58.373Z,46.00
2023-05-20T10:32:27.505Z,45.00
2023-05-20T10:35:00.402Z,45.60
2023-05-20T10:37:30.769Z,46.10
2023-05-20T10:40:08.408Z,45.20
2023-05-20T10:42:36.386Z,47.10
2023-05-20T10:45:07.368Z,47.60
2023-05-20T10:47:35.890Z,45.70
2023-05-20T10:50:05.882Z,45.90
2023-05-20T10:52:35.118Z,49.90
2023-05-20T10:55:03.535Z,45.80
2023-05-20T10:57:32.074Z,47.10
2023-05-20T11:00:01.110Z,49.30
2023-05-20T11:02:30.770Z,45.90
2023-05-20T11:04:59.151Z,46.20
2023-05-20T11:07:28.837Z,45.40
2023-05-20T11:09:56.947Z,44.80
2023-05-20T11:12:25.989Z,46.20
2023-05-20T11:14:54.330Z,46.80
2023-05-20T11:17:22.355Z,45.90
2023-05-20T11:19:52.063Z,47.30
2023-05-20T11:22:20.010Z,44.80
2023-05-20T11:24:47.961Z,44.40
2023-05-20T11:27:15.926Z,44.30
2023-05-20T11:29:44.009Z,44.40
2023-05-20T11:32:13.271Z,45.20
2023-05-20T11:34:42.578Z,44.70
2023-05-20T11:37:12.715Z,46.30
2023-05-20T11:39:40.886Z,47.40
2023-05-20T11:42:08.849Z,44.50
2023-05-20T11:44:36.902Z,47.10
2023-05-20T11:47:05.246Z,44.50
2023-05-20T11:49:40.742Z,44.20
2023-05-20T11:52:12.473Z,43.10
2023-05-20T11:54:40.495Z,42.20
2023-05-20T11:57:08.618Z,43.40
2023-05-20T11:59:36.889Z,43.60
2023-05-20T12:02:04.795Z,42.70
2023-05-20T12:04:32.746Z,42.60
2023-05-20T12:07:01.099Z,43.00
2023-05-20T12:09:30.621Z,43.50
2023-05-20T12:11:59.380Z,41.30
2023-05-20T12:14:27.321Z,42.10
2023-05-20T12:16:55.220Z,42.20
2023-05-20T12:19:23.172Z,41.20
2023-05-20T12:21:52.702Z,41.20
2023-05-20T12:24:21.260Z,40.80
2023-05-20T12:26:50.759Z,40.80
2023-05-20T12:29:18.709Z,40.10
2023-05-20T12:31:46.768Z,41.40
2023-05-20T12:34:14.700Z,40.70
2023-05-20T12:36:42.656Z,41.10
2023-05-20T12:39:11.013Z,40.80
2023-05-20T12:41:38.964Z,40.40
2023-05-20T12:44:08.338Z,42.60
2023-05-20T12:46:37.234Z,40.30
2023-05-20T12:49:05.652Z,42.40
2023-05-20T12:51:33.628Z,42.50
2023-05-20T12:54:02.325Z,43.80
2023-05-20T12:56:30.630Z,42.00
2023-05-20T12:58:58.593Z,42.10
2023-05-20T13:01:27.970Z,45.10
2023-05-20T13:03:56.016Z,42.00
2023-05-20T13:06:23.952Z,40.90
2023-05-20T13:08:51.893Z,41.70
2023-05-20T13:11:19.877Z,43.60
2023-05-20T13:13:47.844Z,44.50
2023-05-20T13:16:16.812Z,42.00
2023-05-20T13:18:46.433Z,42.50
2023-05-20T13:21:14.391Z,42.70
2023-05-20T13:23:42.996Z,41.80
2023-05-20T13:26:10.988Z,41.80
2023-05-20T13:28:38.957Z,42.30
2023-05-20T13:31:07.705Z,42.50
2023-05-20T13:33:35.759Z,42.50
2023-05-20T13:36:05.605Z,42.70
2023-05-20T13:38:35.153Z,45.00
2023-05-20T13:41:03.812Z,44.70
2023-05-20T13:43:33.211Z,44.20
2023-05-20T13:46:01.315Z,42.70
2023-05-20T13:48:29.406Z,42.90
2023-05-20T13:50:57.316Z,43.40
2023-05-20T13:53:26.598Z,40.50
2023-05-20T13:55:54.583Z,41.40
2023-05-20T13:58:22.519Z,43.00
2023-05-20T14:00:50.444Z,41.80
2023-05-20T14:03:18.467Z,41.40
2023-05-20T14:05:46.473Z,43.00
2023-05-20T14:08:14.424Z,41.70
2023-05-20T14:10:43.695Z,42.70
2023-05-20T14:13:11.594Z,42.30
2023-05-20T14:15:39.552Z,43.20
2023-05-20T14:18:07.710Z,44.30
2023-05-20T14:20:35.949Z,45.60
2023-05-20T14:23:04.060Z,45.00
2023-05-20T14:25:32.011Z,44.30
2023-05-20T14:28:01.295Z,44.20
2023-05-20T14:30:29.225Z,43.80
2023-05-20T14:32:57.295Z,45.20
2023-05-20T14:35:25.331Z,43.90
2023-05-20T14:37:54.053Z,43.20
2023-05-20T14:40:22.004Z,43.10
2023-05-20T14:42:49.923Z,42.90
2023-05-20T14:45:19.469Z,43.80
2023-05-20T14:47:47.415Z,44.60
2023-05-20T14:50:15.549Z,44.60
2023-05-20T14:52:43.677Z,45.60
2023-05-20T14:55:11.598Z,45.20
2023-05-20T14:57:39.598Z,44.00
2023-05-20T15:00:08.794Z,44.70
2023-05-20T15:02:38.288Z,45.30
2023-05-20T15:05:06.958Z,46.30
2023-05-20T15:07:34.884Z,44.90
2023-05-20T15:10:02.832Z,45.00
2023-05-20T15:12:30.737Z,44.60
2023-05-20T15:14:58.662Z,44.20
2023-05-20T15:17:26.681Z,46.50
2023-05-20T15:19:56.013Z,46.30
2023-05-20T15:22:23.958Z,44.20
2023-05-20T15:24:51.857Z,44.20
2023-05-20T15:27:19.825Z,44.50
2023-05-20T15:29:48.615Z,43.40
2023-05-20T15:32:16.703Z,43.80
2023-05-20T15:34:44.630Z,44.50
2023-05-20T15:37:14.021Z,42.30
2023-05-20T15:39:42.181Z,41.30
2023-05-20T15:42:13.601Z,41.10
2023-05-20T15:44:41.614Z,39.50
2023-05-20T15:47:09.515Z,40.50
2023-05-20T15:49:37.655Z,39.70
2023-05-20T15:52:06.256Z,38.70
2023-05-20T15:54:35.566Z,38.50
2023-05-20T15:57:03.681Z,39.80
2023-05-20T15:59:31.701Z,38.80
2023-05-20T16:01:59.824Z,39.30
2023-05-20T16:04:27.889Z,38.70
2023-05-20T16:06:55.897Z,39.70
2023-05-20T16:09:23.840Z,38.50
2023-05-20T16:11:53.125Z,39.90
2023-05-20T16:14:21.029Z,38.70
2023-05-20T16:16:48.971Z,39.50
2023-05-20T16:19:16.941Z,39.20
2023-05-20T16:21:45.972Z,39.00
2023-05-20T16:24:13.946Z,39.50
2023-05-20T16:26:42.015Z,40.90
2023-05-20T16:29:11.300Z,42.10
2023-05-20T16:31:39.238Z,41.70
2023-05-20T16:34:08.407Z,40.40
2023-05-20T16:36:36.523Z,42.00
2023-05-20T16:39:04.538Z,42.80
2023-05-20T16:41:32.596Z,43.90
2023-05-20T16:44:00.541Z,44.40
2023-05-20T16:46:29.832Z,45.80
2023-05-20T16:48:58.026Z,47.30
2023-05-20T16:51:26.075Z,45.60
2023-05-20T16:53:54.047Z,47.30
2023-05-20T16:56:22.905Z,48.50
2023-05-20T16:58:52.939Z,48.10
2023-05-20T17:01:21.228Z,49.10
2023-05-20T17:03:50.865Z,49.50
2023-05-20T17:06:18.923Z,49.80
2023-05-20T17:08:46.850Z,51.00
2023-05-20T17:11:14.975Z,50.50
2023-05-20T17:13:42.931Z,51.30
2023-05-20T17:16:11.900Z,50.90
2023-05-20T17:18:40.160Z,51.90
2023-05-20T17:21:09.558Z,51.00
2023-05-20T17:23:37.495Z,51.90
2023-05-20T17:26:05.754Z,51.50
2023-05-20T17:28:33.672Z,52.00
2023-05-20T17:31:01.588Z,52.40
2023-05-20T17:33:29.605Z,52.40
2023-05-20T17:35:57.638Z,52.10
2023-05-20T17:38:26.987Z,52.60
2023-05-20T17:40:55.149Z,53.40
2023-05-20T17:43:25.011Z,53.10
2023-05-20T17:45:53.093Z,52.80
2023-05-20T17:48:21.141Z,54.00
2023-05-20T17:50:49.074Z,53.80
2023-05-20T17:53:18.655Z,54.50
2023-05-20T17:55:49.345Z,53.60
2023-05-20T17:58:17.277Z,54.20
2023-05-20T18:00:45.255Z,54.30
2023-05-20T18:03:13.772Z,54.50
2023-05-20T18:05:41.973Z,54.90
2023-05-20T18:08:09.882Z,55.30
2023-05-20T18:10:37.982Z,55.80
2023-05-20T18:13:07.392Z,55.30
2023-05-20T18:15:35.423Z,55.30
2023-05-20T18:18:03.449Z,55.40
2023-05-20T18:20:31.424Z,55.60
2023-05-20T18:22:59.379Z,55.80
2023-05-20T18:25:27.687Z,56.20
2023-05-20T18:27:55.603Z,57.30
2023-05-20T18:30:24.946Z,57.30
2023-05-20T18:32:53.235Z,57.10
2023-05-20T18:35:21.237Z,57.20
2023-05-20T18:37:49.287Z,58.20
2023-05-20T18:40:18.991Z,58.50
2023-05-20T18:42:46.881Z,57.30
2023-05-20T18:45:14.822Z,58.10
2023-05-20T18:47:44.139Z,58.30
2023-05-20T18:50:12.730Z,59.20
2023-05-20T18:52:40.718Z,58.80
2023-05-20T18:55:09.428Z,58.60
2023-05-20T18:57:37.368Z,58.60
2023-05-20T19:00:10.627Z,59.10
2023-05-20T19:02:38.954Z,59.20
2023-05-20T19:05:10.496Z,59.20
2023-05-20T19:07:38.809Z,59.00
2023-05-20T19:10:07.851Z,59.10
2023-05-20T19:12:35.767Z,59.30
2023-05-20T19:15:05.091Z,59.40
2023-05-20T19:17:33.081Z,59.90
2023-05-20T19:20:01.281Z,60.10
2023-05-20T19:22:30.761Z,60.40
2023-05-20T19:24:58.841Z,60.60
2023-05-20T19:27:26.772Z,60.80
2023-05-20T19:29:54.664Z,61.10
2023-05-20T19:32:22.614Z,61.70
2023-05-20T19:34:50.596Z,62.10
2023-05-20T19:37:19.197Z,62.40
2023-05-20T19:39:49.348Z,62.90
2023-05-20T19:42:17.382Z,63.40
2023-05-20T19:44:46.468Z,63.40
2023-05-20T19:47:14.443Z,63.50
2023-05-20T19:49:42.404Z,63.50
2023-05-20T19:52:10.341Z,63.80
2023-05-20T19:54:39.201Z,63.40
2023-05-20T19:57:08.488Z,64.10
2023-05-20T19:59:37.770Z,64.40
2023-05-20T20:02:06.425Z,63.60
2023-05-20T20:04:34.408Z,64.10
2023-05-20T20:07:02.475Z,63.90
2023-05-20T20:09:31.124Z,63.90
2023-05-20T20:11:59.042Z,63.40
2023-05-20T20:14:28.376Z,63.50
2023-05-20T20:16:56.373Z,63.90
2023-05-20T20:19:26.170Z,63.60
2023-05-20T20:21:56.493Z,63.80
2023-05-20T20:24:25.033Z,64.20
2023-05-20T20:26:54.135Z,64.60
2023-05-20T20:29:22.762Z,64.60
2023-05-20T20:31:52.360Z,64.80
2023-05-20T20:34:20.497Z,64.50
2023-05-20T20:36:48.489Z,65.10
2023-05-20T20:39:18.991Z,65.40
2023-05-20T20:41:50.076Z,65.10
2023-05-20T20:44:20.927Z,65.60
2023-05-20T20:46:50.740Z,65.60
2023-05-20T20:49:20.663Z,66.00
2023-05-20T20:51:49.448Z,65.60
2023-05-20T20:54:17.418Z,65.50
2023-05-20T20:56:46.982Z,65.90
2023-05-20T20:59:15.866Z,65.60
2023-05-20T21:01:45.035Z,66.10
2023-05-20T21:04:13.839Z,66.20
2023-05-20T21:06:45.875Z,66.00
2023-05-20T21:09:14.342Z,65.60
2023-05-20T21:11:43.110Z,65.60
2023-05-20T21:14:11.634Z,66.10
2023-05-20T21:16:39.858Z,66.00
2023-05-20T21:19:07.908Z,65.90
2023-05-20T21:21:36.115Z,65.90
2023-05-20T21:24:05.637Z,66.40
2023-05-20T21:26:34.743Z,65.40
2023-05-20T21:29:02.672Z,65.80
2023-05-20T21:31:30.694Z,65.90
2023-05-20T21:33:58.708Z,66.80
2023-05-20T21:36:26.681Z,66.90
2023-05-20T21:38:54.588Z,66.70
2023-05-20T21:41:24.442Z,66.90
2023-05-20T21:43:52.710Z,67.00
2023-05-20T21:46:20.753Z,66.60
2023-05-20T21:48:51.047Z,68.90
2023-05-20T21:51:19.044Z,66.50
2023-05-20T21:53:46.992Z,66.70
2023-05-20T21:56:14.949Z,66.70
2023-05-20T21:58:44.226Z,67.10
2023-05-20T22:01:12.287Z,67.10
2023-05-20T22:03:40.722Z,67.40
2023-05-20T22:06:09.149Z,67.40
2023-05-20T22:08:37.118Z,67.40
2023-05-20T22:11:07.051Z,68.30
2023-05-20T22:13:36.169Z,69.00
2023-05-20T22:16:05.752Z,68.70
2023-05-20T22:18:33.685Z,67.70
2023-05-20T22:21:01.783Z,68.10
2023-05-20T22:23:29.845Z,68.60
2023-05-20T22:25:58.111Z,68.30
2023-05-20T22:28:26.180Z,67.90
2023-05-20T22:30:54.622Z,67.90
2023-05-20T22:33:24.225Z,68.20
2023-05-20T22:35:53.499Z,67.80
2023-05-20T22:38:21.960Z,68.20
2023-05-20T22:40:49.880Z,68.50
2023-05-20T22:43:17.781Z,68.80
2023-05-20T22:45:45.748Z,69.30
2023-05-20T22:48:13.704Z,68.90
2023-05-20T22:50:42.965Z,68.80
2023-05-20T22:53:11.132Z,68.80
2023-05-20T22:55:39.515Z,68.30
2023-05-20T22:58:07.920Z,69.00
2023-05-20T23:00:35.821Z,69.60
2023-05-20T23:03:03.813Z,69.10
2023-05-20T23:05:31.809Z,68.50
2023-05-20T23:08:01.390Z,68.50
2023-05-20T23:10:29.369Z,69.30
2023-05-20T23:12:57.232Z,68.60
2023-05-20T23:15:25.477Z,69.30
2023-05-20T23:17:53.464Z,68.70
2023-05-20T23:20:22.239Z,68.50
2023-05-20T23:22:50.177Z,68.90
2023-05-20T23:25:19.581Z,69.00
2023-05-20T23:27:47.548Z,68.60
2023-05-20T23:30:15.478Z,69.00
2023-05-20T23:32:43.523Z,69.30
2023-05-20T23:35:13.117Z,69.80
2023-05-20T23:37:42.008Z,70.30
2023-05-20T23:40:10.620Z,70.10
2023-05-20T23:42:39.977Z,70.40
2023-05-20T23:45:08.670Z,71.00
2023-05-20T23:47:37.827Z,71.50
2023-05-20T23:50:06.354Z,72.00
2023-05-20T23:52:34.254Z,71.90
2023-05-20T23:55:02.177Z,72.20
2023-05-20T23:57:30.061Z,72.10
2023-05-20T23:59:59.291Z,72.60
